Time;durP1;ratioP1;P1;durP2;ratioP2;P2;SDS_P1;SDS_P2;PMS_P1;PMS_P2;Temp;Humidity;BMP_temperature;BMP_pressure;BME280_temperature;BME280_humidity;BME280_pressure;Samples;Min_cycle;Max_cycle;Signal;HPM_P1;HPM_P2
2022/01/12 00:01:45;;;;;;;1.85;1.75;;;-0.30;99.90;;;;;;5012855;28;20512;-75
2022/01/12 00:04:12;;;;;;;0.77;0.77;;;-0.20;99.90;;;;;;5012825;28;20029;-75
2022/01/12 00:06:38;;;;;;;5.30;2.33;;;-0.30;99.90;;;;;;5012943;28;20552;-74
2022/01/12 00:09:07;;;;;;;29.40;6.90;;;-0.10;99.90;;;;;;4995167;28;20038;-75
2022/01/12 00:11:35;;;;;;;0.60;0.60;;;-0.10;99.90;;;;;;5012757;28;20018;-74
2022/01/12 00:14:03;;;;;;;0.77;0.77;;;-0.10;99.90;;;;;;4995179;28;20032;-75
2022/01/12 00:16:28;;;;;;;7.00;2.28;;;-0.20;99.90;;;;;;4994717;28;20026;-75
2022/01/12 00:18:54;;;;;;;1.95;1.85;;;0.00;99.90;;;;;;4995060;28;20037;-75
2022/01/12 00:21:20;;;;;;;5.15;4.72;;;0.00;99.90;;;;;;4994950;28;20394;-75
2022/01/12 00:23:46;;;;;;;0.95;0.88;;;0.00;99.90;;;;;;4995133;28;20026;-75
2022/01/12 00:26:25;;;;;;;0.50;0.50;;;0.10;99.90;;;;;;5012392;28;20033;-74
2022/01/12 00:33:09;;;;;;;1.00;1.00;;;0.20;99.90;;;;;;5012668;28;20030;-75
2022/01/12 00:34:31;;;;;;;;;;;0.00;99.90;;;;;;4995251;28;20025;-75
2022/01/12 00:36:57;;;;;;;0.50;0.50;;;-0.20;99.90;;;;;;4995004;28;19910;-75
2022/01/12 00:39:23;;;;;;;15.07;3.70;;;-0.20;99.90;;;;;;4995156;28;20128;-75
2022/01/12 00:41:49;;;;;;;1.85;0.65;;;-0.20;99.90;;;;;;5012386;28;20022;-75
2022/01/12 00:44:24;;;;;;;6.90;5.55;;;-0.20;99.90;;;;;;4995116;28;20026;-74
2022/01/12 00:46:52;;;;;;;0.65;0.65;;;-0.10;99.90;;;;;;4995144;28;20029;-75
2022/01/12 00:49:18;;;;;;;4.68;1.85;;;-0.20;99.90;;;;;;4994653;28;20060;-75
2022/01/12 00:51:44;;;;;;;2.05;1.40;;;0.00;99.90;;;;;;5012057;28;20030;-75
2022/01/12 00:54:09;;;;;;;0.50;0.50;;;0.00;99.90;;;;;;5012123;28;20030;-75
2022/01/12 00:56:35;;;;;;;0.77;0.77;;;0.10;99.90;;;;;;5012163;28;20018;-75
2022/01/12 00:59:03;;;;;;;8.27;7.65;;;0.00;99.90;;;;;;4995223;28;20032;-75
2022/01/12 01:01:29;;;;;;;0.40;0.40;;;-0.10;99.90;;;;;;5016096;28;20370;-75
2022/01/12 01:03:55;;;;;;;3.13;2.92;;;-0.10;99.90;;;;;;5016151;28;20437;-75
2022/01/12 01:06:22;;;;;;;1.35;1.35;;;0.00;99.90;;;;;;5015989;28;20447;-75
2022/01/12 01:08:51;;;;;;;0.35;0.35;;;0.00;99.90;;;;;;4983989;28;20378;-75
2022/01/12 01:11:18;;;;;;;5.68;5.30;;;0.10;99.90;;;;;;5015884;28;20034;-75
2022/01/12 01:13:56;;;;;;;0.35;0.35;;;0.20;99.90;;;;;;5015801;28;20025;-75
2022/01/12 01:16:45;;;;;;;1.85;0.80;;;0.20;99.90;;;;;;4998421;28;20029;-75
2022/01/12 01:27:26;;;;;;;0.70;0.70;;;0.20;99.90;;;;;;4997890;28;20095;-75
2022/01/12 01:29:54;;;;;;;18.42;16.95;;;0.20;99.90;;;;;;4998202;28;20044;-76
2022/01/12 01:32:20;;;;;;;1.52;1.42;;;0.20;99.90;;;;;;5015281;28;20486;-75
2022/01/12 01:34:48;;;;;;;0.40;0.40;;;0.20;99.90;;;;;;5014225;28;20029;-75
2022/01/12 01:37:14;;;;;;;0.80;0.77;;;0.00;99.90;;;;;;5014442;28;20473;-75
2022/01/12 01:39:41;;;;;;;0.50;0.50;;;0.00;99.90;;;;;;5015731;28;20026;-75
2022/01/12 01:42:21;;;;;;;0.40;0.40;;;0.00;99.90;;;;;;4997936;28;20030;-74
2022/01/12 01:55:29;;;;;;;0.60;0.60;;;-0.20;99.90;;;;;;5015769;28;20076;-72
2022/01/12 01:57:55;;;;;;;1.30;0.85;;;-0.10;99.90;;;;;;5015788;28;20022;-73
2022/01/12 02:00:24;;;;;;;1.13;0.75;;;-0.10;99.90;;;;;;5015726;28;20072;-72
2022/01/12 02:02:53;;;;;;;0.40;0.40;;;-0.20;99.90;;;;;;4981340;28;20056;-73
2022/01/12 02:05:19;;;;;;;1.38;1.23;;;-0.30;99.90;;;;;;4981605;28;20191;-73
2022/01/12 02:07:45;;;;;;;1.23;1.15;;;-0.20;99.90;;;;;;4998129;28;20257;-73
2022/01/12 02:10:11;;;;;;;0.40;0.40;;;-0.30;99.90;;;;;;4981555;28;20382;-72
2022/01/12 02:12:37;;;;;;;0.35;0.35;;;-0.50;99.90;;;;;;4997647;28;20030;-73
2022/01/12 02:15:11;;;;;;;2.20;1.75;;;-0.40;99.90;;;;;;5015214;28;20493;-72
2022/01/12 02:17:53;;;;;;;0.50;0.50;;;-0.20;99.90;;;;;;5015160;28;20021;-73
2022/01/12 02:36:54;;;;;;;0.30;0.30;;;-0.20;99.90;;;;;;5015042;28;20034;-72
2022/01/12 02:42:04;;;;;;;0.30;0.30;;;-0.10;99.90;;;;;;5015328;28;20534;-73
2022/01/12 02:55:27;;;;;;;0.40;0.40;;;-0.10;99.90;;;;;;4977047;28;20033;-76
2022/01/12 02:57:53;;;;;;;1.50;1.40;;;-0.20;99.90;;;;;;4977002;28;20026;-76
2022/01/12 03:00:20;;;;;;;0.63;0.63;;;-0.10;99.90;;;;;;4994844;28;20074;-76
2022/01/12 03:02:51;;;;;;;1.58;1.23;;;-0.10;99.90;;;;;;4977033;28;20026;-76
2022/01/12 03:07:52;;;;;;;0.40;0.40;;;0.00;99.90;;;;;;4976799;28;20121;-76
2022/01/12 03:10:18;;;;;;;0.40;0.40;;;-0.10;99.90;;;;;;4994190;28;20022;-76
2022/01/12 03:12:45;;;;;;;0.30;0.30;;;-0.10;99.90;;;;;;4994398;28;20081;-76
2022/01/12 03:15:11;;;;;;;1.23;1.23;;;0.00;99.90;;;;;;4994269;28;20029;-76
2022/01/12 03:17:37;;;;;;;0.40;0.40;;;0.00;99.90;;;;;;4994136;28;20109;-76
2022/01/12 03:20:06;;;;;;;0.30;0.30;;;-0.10;99.90;;;;;;4994110;28;20112;-76
2022/01/12 03:22:32;;;;;;;0.30;0.30;;;-0.30;99.90;;;;;;4993406;28;20389;-76
2022/01/12 03:24:58;;;;;;;0.40;0.40;;;-0.40;99.90;;;;;;4994295;28;20022;-76
2022/01/12 03:27:26;;;;;;;0.45;0.45;;;-0.40;99.90;;;;;;4976283;28;20030;-76
2022/01/12 03:29:55;;;;;;;0.40;0.40;;;-0.80;99.90;;;;;;4976492;28;20069;-77
2022/01/12 03:32:29;;;;;;;0.40;0.40;;;-1.00;99.90;;;;;;4993932;28;20022;-76
2022/01/12 03:35:06;;;;;;;2.28;1.23;;;-1.10;99.90;;;;;;4992650;28;20046;-76
2022/01/12 03:38:19;;;;;;;0.75;0.75;;;-1.10;99.90;;;;;;4976170;28;20033;-76
2022/01/12 03:40:29;;;;;;;3.13;0.52;;;-1.20;99.90;;;;;;4993722;28;20034;-76
2022/01/12 03:42:55;;;;;;;0.70;0.70;;;-1.30;99.90;;;;;;4976159;28;20401;-76
2022/01/12 03:45:21;;;;;;;0.55;0.55;;;-1.50;99.90;;;;;;4975929;28;20032;-76
2022/01/12 03:47:46;;;;;;;0.50;0.50;;;-1.30;99.90;;;;;;4993547;28;20030;-76
2022/01/12 03:50:12;;;;;;;0.40;0.40;;;-1.20;99.90;;;;;;4992320;28;20474;-76
2022/01/12 03:52:38;;;;;;;0.40;0.40;;;-1.10;99.90;;;;;;4993342;28;20073;-76
2022/01/12 03:55:04;;;;;;;0.50;0.50;;;-1.10;99.90;;;;;;4976219;28;20038;-76
2022/01/12 03:57:30;;;;;;;0.35;0.35;;;-1.00;99.90;;;;;;4992414;28;20409;-76
2022/01/12 03:59:56;;;;;;;1.13;1.02;;;-0.80;99.90;;;;;;4976108;28;20030;-76
2022/01/12 04:02:22;;;;;;;0.47;0.47;;;-0.90;99.90;;;;;;4993733;28;20022;-76
2022/01/12 04:10:25;;;;;;;0.50;0.50;;;-0.90;99.90;;;;;;4975943;28;20034;-76
2022/01/12 04:12:50;;;;;;;0.40;0.40;;;-1.20;99.90;;;;;;4975965;28;20118;-76
2022/01/12 04:15:16;;;;;;;0.40;0.40;;;-1.40;99.90;;;;;;4976012;28;20505;-76
2022/01/12 04:17:42;;;;;;;0.43;0.43;;;-1.60;99.90;;;;;;4975564;28;20022;-76
2022/01/12 04:20:08;;;;;;;0.63;0.63;;;-1.70;99.90;;;;;;4992220;28;20030;-76
2022/01/12 04:25:18;;;;;;;0.50;0.50;;;-1.80;99.90;;;;;;4975628;28;20026;-76
2022/01/12 04:27:44;;;;;;;0.50;0.50;;;-1.80;99.90;;;;;;4991865;28;20030;-76
2022/01/12 04:30:10;;;;;;;0.50;0.50;;;-1.90;99.90;;;;;;4975740;28;20470;-76
2022/01/12 04:32:41;;;;;;;0.60;0.60;;;-1.90;99.90;;;;;;4993038;28;20018;-76
2022/01/12 04:35:07;;;;;;;0.93;0.93;;;-1.90;99.90;;;;;;4992349;28;20019;-76
2022/01/12 04:37:33;;;;;;;2.00;1.38;;;-1.90;99.90;;;;;;4991855;28;20037;-76
2022/01/12 04:39:58;;;;;;;0.50;0.50;;;-1.90;99.90;;;;;;4991758;28;20146;-76
2022/01/12 04:42:24;;;;;;;0.47;0.47;;;-1.90;99.90;;;;;;4992781;28;20030;-76
2022/01/12 04:44:59;;;;;;;0.60;0.60;;;-1.80;99.90;;;;;;4992684;28;20089;-76
2022/01/12 04:47:45;;;;;;;0.50;0.50;;;-1.90;99.90;;;;;;4992885;28;20022;-76
2022/01/12 04:50:11;;;;;;;0.50;0.50;;;-1.90;99.90;;;;;;4992756;28;20023;-76
2022/01/12 04:52:37;;;;;;;1.02;1.02;;;-1.90;99.90;;;;;;4992808;28;20018;-76
2022/01/12 04:55:03;;;;;;;1.48;1.42;;;-1.90;99.90;;;;;;4975193;28;20038;-76
2022/01/12 04:57:29;;;;;;;2.28;1.48;;;-2.30;99.90;;;;;;4975131;28;20033;-76
2022/01/12 05:00:08;;;;;;;1.45;1.25;;;-2.70;99.90;;;;;;4975216;28;20026;-76
2022/01/12 05:13:42;;;;;;;4.75;3.40;;;-3.20;99.90;;;;;;4992807;28;20585;-76
2022/01/12 05:16:11;;;;;;;0.73;0.73;;;-3.20;99.90;;;;;;4992215;28;20031;-76
2022/01/12 05:18:39;;;;;;;0.60;0.60;;;-3.20;99.90;;;;;;4975016;28;20030;-76
2022/01/12 05:21:05;;;;;;;0.60;0.60;;;-3.30;99.90;;;;;;4974718;28;20546;-76
2022/01/12 05:23:31;;;;;;;1.00;1.00;;;-3.30;99.90;;;;;;4992306;28;20049;-76
2022/01/12 05:25:57;;;;;;;0.85;0.85;;;-3.10;99.90;;;;;;4974676;28;20497;-76
2022/01/12 05:28:24;;;;;;;3.00;1.30;;;-3.10;99.90;;;;;;4992352;28;20066;-76
2022/01/12 05:30:52;;;;;;;0.60;0.60;;;-2.90;99.90;;;;;;4992216;28;20026;-75
2022/01/12 05:33:18;;;;;;;1.15;1.15;;;-2.60;99.90;;;;;;4991083;28;20036;-76
2022/01/12 05:35:44;;;;;;;0.95;0.95;;;-2.60;99.90;;;;;;4992154;28;20045;-76
2022/01/12 05:38:13;;;;;;;1.23;1.08;;;-2.50;99.90;;;;;;4991265;28;20107;-77
2022/01/12 05:40:40;;;;;;;0.60;0.60;;;-2.30;99.90;;;;;;4990994;28;20022;-76
2022/01/12 05:43:07;;;;;;;0.50;0.50;;;-2.30;99.90;;;;;;4974527;28;20482;-76
2022/01/12 05:45:34;;;;;;;0.50;0.50;;;-2.10;99.90;;;;;;4991854;28;20037;-76
2022/01/12 05:50:28;;;;;;;0.57;0.57;;;-2.10;99.90;;;;;;4995697;28;20037;-76
2022/01/12 05:52:55;;;;;;;0.65;0.65;;;-2.00;99.90;;;;;;4978077;28;20022;-76
2022/01/12 05:55:21;;;;;;;0.50;0.50;;;-2.10;99.90;;;;;;4994313;28;20482;-76
2022/01/12 05:57:48;;;;;;;0.40;0.40;;;-1.90;99.90;;;;;;4994087;28;20045;-76
2022/01/12 06:00:17;;;;;;;0.45;0.45;;;-1.80;99.90;;;;;;4994149;28;20101;-76
2022/01/12 06:02:43;;;;;;;2.30;2.20;;;-1.60;99.90;;;;;;4977826;28;20489;-76
2022/01/12 06:05:09;;;;;;;1.05;1.05;;;-1.60;99.90;;;;;;4995137;28;20027;-76
2022/01/12 06:07:35;;;;;;;0.52;0.52;;;-1.40;99.90;;;;;;4995052;28;20076;-76
2022/01/12 06:10:01;;;;;;;0.60;0.60;;;-1.30;99.90;;;;;;4995120;28;20157;-76
2022/01/12 06:12:27;;;;;;;0.40;0.40;;;-1.20;99.90;;;;;;4977424;28;20019;-76
2022/01/12 06:14:52;;;;;;;1.42;1.42;;;-1.20;99.90;;;;;;4977472;28;20034;-76
2022/01/12 06:17:18;;;;;;;1.65;1.35;;;-1.40;99.90;;;;;;4994689;28;20478;-76
2022/01/12 06:19:44;;;;;;;0.75;0.75;;;-1.70;99.90;;;;;;4993732;28;20478;-76
2022/01/12 06:22:10;;;;;;;0.60;0.60;;;-1.80;99.90;;;;;;4977296;28;20062;-76
2022/01/12 06:24:36;;;;;;;0.43;0.43;;;-1.70;99.90;;;;;;4994877;28;20067;-76
2022/01/12 06:27:03;;;;;;;1.23;1.05;;;-1.90;99.90;;;;;;4994593;28;20023;-76
2022/01/12 06:29:49;;;;;;;1.75;1.02;;;-2.10;99.90;;;;;;4994902;28;20497;-76
2022/01/12 06:32:15;;;;;;;0.70;0.70;;;-2.10;99.90;;;;;;4993493;28;20018;-76
2022/01/12 06:34:41;;;;;;;0.65;0.65;;;-2.00;99.90;;;;;;4994649;28;20026;-76
2022/01/12 06:37:07;;;;;;;1.55;1.50;;;-1.80;99.90;;;;;;4994501;28;20058;-76
2022/01/12 06:39:33;;;;;;;1.38;0.90;;;-1.80;99.90;;;;;;4993255;28;20080;-76
2022/01/12 06:41:58;;;;;;;0.57;0.57;;;-1.80;99.90;;;;;;4988097;28;20018;-76
2022/01/12 06:44:28;;;;;;;0.60;0.60;;;-1.90;99.90;;;;;;4995866;28;20030;-76
2022/01/12 06:46:56;;;;;;;0.50;0.50;;;-2.10;99.90;;;;;;4985404;28;20061;-76
2022/01/12 06:49:22;;;;;;;0.50;0.50;;;-2.10;99.90;;;;;;4992584;28;20053;-76
2022/01/12 06:51:48;;;;;;;0.50;0.50;;;-1.90;99.90;;;;;;5013569;28;20045;-76
2022/01/12 06:54:16;;;;;;;0.40;0.40;;;-2.00;99.90;;;;;;5013786;28;20105;-76
2022/01/12 06:56:42;;;;;;;0.52;0.52;;;-1.90;99.90;;;;;;5012588;28;20034;-76
2022/01/12 06:59:09;;;;;;;0.70;0.70;;;-1.70;99.90;;;;;;4996138;28;20504;-76
2022/01/12 07:01:35;;;;;;;5.82;0.65;;;-1.60;99.90;;;;;;4965026;28;20054;-76
2022/01/12 07:04:01;;;;;;;0.85;0.85;;;-1.60;99.90;;;;;;4989733;28;20126;-76
2022/01/12 07:06:27;;;;;;;0.50;0.50;;;-1.70;99.90;;;;;;4995760;28;20109;-76
2022/01/12 07:08:52;;;;;;;0.70;0.68;;;-1.90;99.90;;;;;;5013514;28;20014;-76
2022/01/12 07:11:18;;;;;;;0.50;0.50;;;-2.10;99.90;;;;;;4995820;28;20481;-76
2022/01/12 07:13:44;;;;;;;0.68;0.68;;;-2.10;99.90;;;;;;4993968;28;20030;-76
2022/01/12 07:16:11;;;;;;;0.50;0.50;;;-2.20;99.90;;;;;;5010484;28;20168;-77
2022/01/12 07:18:38;;;;;;;0.50;0.50;;;-2.30;99.90;;;;;;4994120;28;20040;-77
2022/01/12 07:21:03;;;;;;;1.00;0.90;;;-2.10;99.90;;;;;;4993956;28;20432;-76
2022/01/12 07:23:29;;;;;;;0.60;0.60;;;-2.00;99.90;;;;;;5013107;28;20033;-76
2022/01/12 07:25:56;;;;;;;0.50;0.50;;;-2.20;99.90;;;;;;5013203;28;20018;-76
2022/01/12 07:28:22;;;;;;;0.43;0.43;;;-2.20;99.90;;;;;;5012240;28;20026;-76
2022/01/12 07:30:49;;;;;;;1.02;1.02;;;-2.20;99.90;;;;;;4995300;28;20025;-76
2022/01/12 07:33:15;;;;;;;0.40;0.40;;;-2.30;99.90;;;;;;4976111;28;20022;-77
2022/01/12 07:35:42;;;;;;;1.95;1.85;;;-2.60;99.90;;;;;;4997070;28;20347;-76
2022/01/12 07:38:08;;;;;;;1.27;1.25;;;-2.90;99.90;;;;;;4995803;28;20026;-76
2022/01/12 07:40:35;;;;;;;0.90;0.90;;;-2.90;99.90;;;;;;5001125;28;20106;-76
2022/01/12 07:43:06;;;;;;;4.82;2.45;;;-3.10;99.90;;;;;;4999455;28;20080;-76
2022/01/12 07:45:33;;;;;;;1.25;1.15;;;-3.40;99.90;;;;;;4978510;28;20033;-76
2022/01/12 07:47:59;;;;;;;1.15;1.15;;;-3.30;99.90;;;;;;4995286;28;20113;-77
2022/01/12 07:50:25;;;;;;;0.60;0.60;;;-3.30;99.90;;;;;;4984623;28;20574;-77
2022/01/12 07:52:53;;;;;;;1.40;1.30;;;-3.10;99.90;;;;;;4991681;28;20033;-76
2022/01/12 07:55:23;;;;;;;2.70;2.53;;;-3.10;99.90;;;;;;4977705;28;20062;-75
2022/01/12 07:57:52;;;;;;;0.70;0.70;;;-3.10;99.90;;;;;;4992172;28;20026;-74
2022/01/12 08:00:20;;;;;;;0.98;0.95;;;-3.10;99.90;;;;;;4992404;28;20022;-74
2022/01/12 08:02:46;;;;;;;0.60;0.60;;;-3.10;99.90;;;;;;4958396;28;20026;-74
2022/01/12 08:05:12;;;;;;;1.45;1.38;;;-3.10;99.90;;;;;;4991378;28;20040;-74
2022/01/12 08:07:39;;;;;;;0.80;0.80;;;-3.10;99.90;;;;;;4991806;28;20512;-74
2022/01/12 08:10:07;;;;;;;1.30;1.20;;;-3.20;99.90;;;;;;4990181;28;20018;-74
2022/01/12 08:12:33;;;;;;;0.60;0.60;;;-3.30;99.90;;;;;;4991747;28;20161;-74
2022/01/12 08:18:46;;;;;;;1.05;1.05;;;-3.60;99.90;;;;;;4985339;28;20175;-76
2022/01/12 08:21:11;;;;;;;2.45;2.25;;;-3.60;99.90;;;;;;4976832;28;20054;-76
2022/01/12 08:23:37;;;;;;;1.98;1.83;;;-3.60;99.90;;;;;;4958126;28;20035;-76
2022/01/12 08:26:03;;;;;;;0.50;0.50;;;-3.70;99.90;;;;;;4962124;28;20394;-76
2022/01/12 08:28:29;;;;;;;8.75;2.15;;;-3.50;99.90;;;;;;4991697;28;20027;-76
2022/01/12 08:30:55;;;;;;;0.60;0.60;;;-3.20;99.90;;;;;;4973210;28;20026;-76
2022/01/12 08:33:21;;;;;;;0.57;0.57;;;-3.20;99.90;;;;;;4991153;28;20044;-76
2022/01/12 08:35:47;;;;;;;0.50;0.50;;;-3.00;99.90;;;;;;4989484;28;20026;-75
2022/01/12 08:38:13;;;;;;;0.40;0.40;;;-2.80;99.90;;;;;;4991010;28;20029;-75
2022/01/12 08:40:39;;;;;;;1.23;1.23;;;-2.60;99.90;;;;;;4988252;28;20042;-76
2022/01/12 08:43:06;;;;;;;6.13;2.65;;;-2.50;99.90;;;;;;4999723;28;20109;-75
2022/01/12 08:45:32;;;;;;;0.75;0.75;;;-2.70;99.90;;;;;;4973774;28;20054;-76
2022/01/12 08:47:58;;;;;;;3.97;3.60;;;-2.60;99.90;;;;;;4991144;28;20190;-76
2022/01/12 08:50:25;;;;;;;2.65;1.45;;;-2.70;99.90;;;;;;4973841;28;20073;-76
2022/01/12 08:52:50;;;;;;;2.47;2.33;;;-2.60;99.90;;;;;;4990460;28;20027;-76
2022/01/12 08:55:19;;;;;;;2.88;1.98;;;-2.40;99.90;;;;;;4990010;28;20029;-77
2022/01/12 08:57:45;;;;;;;1.00;1.00;;;-2.30;99.90;;;;;;4990640;28;20030;-76
2022/01/12 09:00:12;;;;;;;0.50;0.50;;;-2.10;99.90;;;;;;4977924;28;20030;-76
2022/01/12 09:02:38;;;;;;;1.95;1.85;;;-2.00;99.90;;;;;;4973262;28;20030;-74
2022/01/12 09:05:05;;;;;;;2.97;2.80;;;-2.00;99.90;;;;;;4990903;28;20027;-75
2022/01/12 09:07:31;;;;;;;2.75;2.05;;;-2.10;99.90;;;;;;4974161;28;20077;-75
2022/01/12 09:09:57;;;;;;;4.55;2.90;;;-2.20;99.90;;;;;;4973182;28;20137;-77
2022/01/12 09:12:22;;;;;;;1.05;0.47;;;-2.10;99.90;;;;;;4960461;28;20053;-76
2022/01/12 09:14:50;;;;;;;1.65;1.55;;;-2.00;99.90;;;;;;4956491;28;20038;-76
2022/01/12 09:17:18;;;;;;;6.72;3.20;;;-1.90;99.90;;;;;;4972401;28;20030;-76
2022/01/12 09:19:48;;;;;;;2.40;1.85;;;-1.90;99.90;;;;;;4973830;28;20034;-75
2022/01/12 09:22:15;;;;;;;4.97;2.97;;;-1.70;99.90;;;;;;4980593;28;20038;-76
2022/01/12 09:24:42;;;;;;;1.17;0.93;;;-1.50;99.90;;;;;;4977060;28;20104;-76
2022/01/12 09:27:08;;;;;;;0.75;0.75;;;-1.50;99.90;;;;;;4992639;28;20049;-75
2022/01/12 09:29:34;;;;;;;2.75;1.58;;;-1.40;99.90;;;;;;4976974;28;20081;-76
2022/01/12 09:32:00;;;;;;;1.63;1.52;;;-1.30;99.90;;;;;;4994067;28;20030;-75
2022/01/12 09:34:26;;;;;;;3.60;2.85;;;-0.90;99.90;;;;;;4992507;28;20050;-75
2022/01/12 09:36:52;;;;;;;0.80;0.80;;;-0.60;99.90;;;;;;4976124;28;20073;-75
2022/01/12 09:39:18;;;;;;;0.98;0.98;;;-0.30;99.90;;;;;;4994029;28;20057;-75
2022/01/12 09:41:43;;;;;;;0.47;0.47;;;-0.10;99.90;;;;;;4993489;28;20037;-75
2022/01/12 09:44:09;;;;;;;5.72;2.55;;;0.30;99.90;;;;;;4978802;28;20030;-75
2022/01/12 09:46:35;;;;;;;0.60;0.60;;;0.30;99.90;;;;;;4994242;28;20084;-75
2022/01/12 09:49:03;;;;;;;1.48;1.33;;;0.30;99.90;;;;;;4996969;28;20050;-75
2022/01/12 09:51:29;;;;;;;5.03;2.13;;;0.50;99.90;;;;;;4976316;28;20029;-75
2022/01/12 09:53:56;;;;;;;2.45;2.28;;;0.90;99.90;;;;;;4961147;28;20390;-76
2022/01/12 09:56:28;;;;;;;3.20;1.75;;;1.50;99.90;;;;;;4994119;28;20065;-75
2022/01/12 09:58:56;;;;;;;0.80;0.80;;;1.90;99.90;;;;;;4993755;28;20057;-76
2022/01/12 10:01:36;;;;;;;1.85;1.75;;;1.90;99.90;;;;;;4994161;28;20113;-75
2022/01/12 10:04:20;;;;;;;6.75;6.05;;;2.20;99.90;;;;;;4989719;28;20609;-75
2022/01/12 10:07:13;;;;;;;2.45;2.25;;;2.90;99.90;;;;;;4976235;28;20109;-76
2022/01/12 10:09:43;;;;;;;2.38;1.58;;;3.40;98.50;;;;;;4971044;28;20030;-76
2022/01/12 10:12:13;;;;;;;6.47;3.25;;;3.70;94.60;;;;;;4993370;28;20034;-75
2022/01/12 10:14:39;;;;;;;1.58;1.27;;;4.00;93.70;;;;;;4977268;28;20033;-75
2022/01/12 10:17:05;;;;;;;0.40;0.40;;;4.50;91.50;;;;;;4975810;28;20113;-76
2022/01/12 10:19:33;;;;;;;21.95;19.67;;;4.70;89.50;;;;;;5007869;28;20030;-75
2022/01/12 10:22:01;;;;;;;2.30;1.23;;;5.10;84.60;;;;;;4959948;28;20058;-74
2022/01/12 10:24:28;;;;;;;0.63;0.63;;;5.60;81.60;;;;;;4992226;28;20486;-75
2022/01/12 10:26:55;;;;;;;1.42;1.33;;;6.40;79.60;;;;;;4975907;28;20023;-77
2022/01/12 10:29:26;;;;;;;1.40;1.40;;;6.90;76.10;;;;;;4992725;28;20029;-76
2022/01/12 10:32:01;;;;;;;37.95;1.95;;;7.40;72.60;;;;;;4974925;28;20022;-76
2022/01/12 10:34:39;;;;;;;0.20;0.20;;;7.50;70.00;;;;;;4991103;28;20502;-75
2022/01/12 10:37:08;;;;;;;0.50;0.50;;;7.80;69.10;;;;;;4993340;28;20026;-76
2022/01/12 10:39:37;;;;;;;2.30;1.35;;;7.60;67.30;;;;;;4993040;28;20022;-75
2022/01/12 10:42:09;;;;;;;0.35;0.35;;;7.90;68.60;;;;;;4975902;28;20026;-77
2022/01/12 10:44:41;;;;;;;0.30;0.30;;;8.30;67.00;;;;;;4992359;28;20611;-76
2022/01/12 10:47:20;;;;;;;9.30;7.13;;;8.60;65.30;;;;;;4992991;28;20026;-76
2022/01/12 10:49:52;;;;;;;0.63;0.43;;;9.00;63.80;;;;;;4991981;28;20018;-76
2022/01/12 10:52:19;;;;;;;4.38;2.00;;;8.70;65.20;;;;;;4975326;28;20022;-76
2022/01/12 10:54:49;;;;;;;1.98;0.93;;;9.10;63.20;;;;;;4992439;28;20049;-76
2022/01/12 10:57:28;;;;;;;2.58;1.83;;;9.40;61.30;;;;;;4975176;28;20522;-76
2022/01/12 11:00:06;;;;;;;0.95;0.95;;;9.50;60.90;;;;;;4992477;28;20038;-76
2022/01/12 11:02:33;;;;;;;1.50;1.40;;;9.90;59.10;;;;;;4992544;28;20030;-77
2022/01/12 11:04:59;;;;;;;1.13;0.95;;;9.60;59.80;;;;;;4991532;28;20029;-76
2022/01/12 11:07:26;;;;;;;2.45;2.25;;;9.30;59.90;;;;;;4975141;28;20381;-76
2022/01/12 11:09:55;;;;;;;9.13;2.30;;;9.70;59.60;;;;;;4992377;28;20022;-76
2022/01/12 11:12:22;;;;;;;0.70;0.70;;;9.70;58.30;;;;;;4975143;28;20122;-76
2022/01/12 11:14:49;;;;;;;0.75;0.45;;;9.70;59.30;;;;;;4985482;28;20030;-75
2022/01/12 11:17:15;;;;;;;27.63;13.52;;;10.30;57.40;;;;;;4992684;28;20437;-75
2022/01/12 11:20:01;;;;;;;0.43;0.28;;;10.10;57.00;;;;;;4984540;28;20113;-76
2022/01/12 11:22:27;;;;;;;1.55;0.98;;;10.50;56.70;;;;;;4991294;28;20034;-76
2022/01/12 11:24:54;;;;;;;12.65;0.68;;;10.60;55.60;;;;;;4977871;28;20092;-76
2022/01/12 11:27:23;;;;;;;13.60;7.40;;;10.30;56.60;;;;;;4992416;28;20023;-76
2022/01/12 11:29:49;;;;;;;1.20;1.10;;;10.10;56.40;;;;;;4980358;28;20391;-76
2022/01/12 11:32:22;;;;;;;0.75;0.75;;;9.10;58.10;;;;;;4992289;28;20057;-76
2022/01/12 11:34:59;;;;;;;7.10;2.40;;;9.00;58.60;;;;;;4976510;28;20189;-75
2022/01/12 11:37:25;;;;;;;1.17;0.80;;;9.70;57.80;;;;;;4992265;28;20529;-76
2022/01/12 11:39:51;;;;;;;3.25;1.85;;;10.20;56.40;;;;;;4991847;28;20026;-77
2022/01/12 11:42:18;;;;;;;0.70;0.70;;;9.00;56.10;;;;;;4991872;28;20026;-76
2022/01/12 11:44:45;;;;;;;2.00;1.45;;;8.70;59.10;;;;;;4974478;28;20486;-75
2022/01/12 11:47:15;;;;;;;1.00;0.98;;;9.10;57.50;;;;;;4991948;28;20026;-75
2022/01/12 11:49:44;;;;;;;3.83;2.65;;;9.50;56.20;;;;;;4991698;28;20098;-76
2022/01/12 11:52:18;;;;;;;1.85;1.42;;;9.80;54.60;;;;;;4991568;28;20054;-76
2022/01/12 11:54:47;;;;;;;0.63;0.63;;;9.30;54.90;;;;;;4991264;28;20049;-76
2022/01/12 11:57:18;;;;;;;1.13;1.13;;;9.40;53.90;;;;;;4991856;28;20050;-76
2022/01/12 11:59:54;;;;;;;1.95;1.85;;;9.90;53.50;;;;;;4978823;28;20114;-76
2022/01/12 12:02:32;;;;;;;1.15;0.40;;;10.50;52.90;;;;;;4973438;28;20044;-76
2022/01/12 12:05:00;;;;;;;2.42;1.48;;;10.70;53.10;;;;;;4988914;28;20136;-76
2022/01/12 12:07:26;;;;;;;8.52;4.82;;;10.70;52.80;;;;;;4991680;28;20022;-76
2022/01/12 12:09:59;;;;;;;1.55;1.33;;;11.10;53.50;;;;;;4978603;28;20101;-76
2022/01/12 12:12:33;;;;;;;0.55;0.55;;;11.30;52.60;;;;;;4990368;28;20023;-75
2022/01/12 12:15:04;;;;;;;2.10;0.60;;;10.80;53.10;;;;;;4991392;28;20027;-75
2022/01/12 12:17:32;;;;;;;1.10;0.90;;;10.00;55.50;;;;;;4991277;28;20030;-76
2022/01/12 12:19:58;;;;;;;0.15;0.15;;;9.40;57.40;;;;;;4977966;28;20030;-76
2022/01/12 12:22:30;;;;;;;0.20;0.20;;;8.70;58.60;;;;;;4991602;28;20026;-76
2022/01/12 12:24:57;;;;;;;;;;;8.60;59.00;;;;;;4991589;28;20030;-76
2022/01/12 12:27:25;;;;;;;1.33;1.33;;;8.10;59.70;;;;;;4973946;28;19906;-75
2022/01/12 12:29:51;;;;;;;0.30;0.30;;;7.70;60.50;;;;;;4975401;28;20022;-76
2022/01/12 12:32:20;;;;;;;0.30;0.30;;;7.30;62.70;;;;;;4991353;28;20413;-76
2022/01/12 12:34:47;;;;;;;0.20;0.20;;;6.40;64.40;;;;;;4974290;28;20041;-76
2022/01/12 12:37:17;;;;;;;0.30;0.30;;;5.70;67.20;;;;;;4957755;28;20029;-75
2022/01/12 12:39:46;;;;;;;1.88;1.70;;;5.40;69.20;;;;;;4990771;28;20502;-76
2022/01/12 12:42:20;;;;;;;6.70;2.28;;;4.80;71.20;;;;;;4990124;28;20027;-76
2022/01/12 12:44:47;;;;;;;0.85;0.85;;;4.40;74.30;;;;;;4989578;28;20042;-76
2022/01/12 12:47:19;;;;;;;0.30;0.30;;;4.30;74.50;;;;;;4990970;28;20483;-76
2022/01/12 12:49:57;;;;;;;3.42;1.08;;;4.20;74.90;;;;;;4988755;28;20014;-76
2022/01/12 12:52:30;;;;;;;0.50;0.50;;;4.30;74.20;;;;;;4973737;28;20039;-76
2022/01/12 12:54:59;;;;;;;0.40;0.40;;;4.30;74.50;;;;;;4973491;28;20030;-76
2022/01/12 12:57:26;;;;;;;2.75;2.58;;;4.00;74.20;;;;;;4994931;28;20034;-75
2022/01/12 13:00:11;;;;;;;0.88;0.88;;;4.00;74.30;;;;;;4994603;28;20033;-75
2022/01/12 13:02:49;;;;;;;1.75;1.15;;;3.80;74.30;;;;;;4994392;28;20030;-76
2022/01/12 13:05:24;;;;;;;1.95;0.65;;;3.80;74.40;;;;;;4977214;28;20375;-76
2022/01/12 13:07:50;;;;;;;0.38;0.38;;;3.80;74.90;;;;;;4993127;28;20022;-76
2022/01/12 13:10:23;;;;;;;1.92;1.75;;;4.70;75.00;;;;;;4994251;28;20022;-76
2022/01/12 13:12:50;;;;;;;0.95;0.95;;;5.20;73.30;;;;;;4977086;28;20121;-76
2022/01/12 13:15:18;;;;;;;0.70;0.70;;;6.60;70.40;;;;;;4976672;28;20045;-76
2022/01/12 13:17:44;;;;;;;1.55;0.98;;;7.40;65.40;;;;;;4994177;28;20036;-76
2022/01/12 13:22:50;;;;;;;9.85;4.60;;;7.90;62.70;;;;;;4976932;28;20483;-76
2022/01/12 13:25:16;;;;;;;2.88;2.67;;;6.90;66.50;;;;;;4960214;28;20048;-76
2022/01/12 13:27:46;;;;;;;0.70;0.68;;;6.30;68.20;;;;;;4993979;28;20497;-76
2022/01/12 13:30:33;;;;;;;1.38;1.27;;;6.20;68.50;;;;;;4992705;28;20014;-76
2022/01/12 13:33:01;;;;;;;5.68;1.20;;;6.60;67.70;;;;;;4976886;28;20026;-76
2022/01/12 13:35:35;;;;;;;0.38;0.38;;;6.90;67.00;;;;;;4993573;28;20394;-75
2022/01/12 13:38:04;;;;;;;0.30;0.30;;;7.70;64.80;;;;;;4992522;28;20034;-76
2022/01/12 13:40:39;;;;;;;0.20;0.20;;;8.00;62.90;;;;;;4992755;28;20328;-75
2022/01/12 13:43:05;;;;;;;0.40;0.40;;;8.00;62.30;;;;;;4989468;28;20539;-76
2022/01/12 13:45:41;;;;;;;0.52;0.52;;;7.30;63.70;;;;;;4993409;28;20031;-76
2022/01/12 13:48:13;;;;;;;0.93;0.93;;;6.70;66.00;;;;;;4976974;28;20069;-77
2022/01/12 13:50:52;;;;;;;0.63;0.57;;;6.00;68.00;;;;;;4993719;28;20474;-76
2022/01/12 13:53:29;;;;;;;0.80;0.80;;;5.80;70.10;;;;;;4993545;28;20022;-76
2022/01/12 13:55:55;;;;;;;1.58;1.42;;;5.70;70.60;;;;;;4988562;28;20081;-77
2022/01/12 13:58:26;;;;;;;0.40;0.40;;;5.60;70.90;;;;;;4993727;28;20022;-76
2022/01/12 14:01:10;;;;;;;2.50;1.73;;;5.20;72.00;;;;;;4993277;28;20045;-76
2022/01/12 14:03:42;;;;;;;1.05;1.02;;;5.10;72.50;;;;;;4993694;28;20030;-75
2022/01/12 14:06:21;;;;;;;0.80;0.80;;;5.00;73.40;;;;;;4980848;28;20022;-76
2022/01/12 14:08:53;;;;;;;5.97;5.50;;;5.00;74.10;;;;;;4992054;28;20026;-76
2022/01/12 14:11:21;;;;;;;0.30;0.30;;;5.10;73.10;;;;;;4993218;28;20022;-76
2022/01/12 14:13:47;;;;;;;0.60;0.60;;;4.80;75.00;;;;;;4993330;28;20034;-76
2022/01/12 14:16:15;;;;;;;2.55;1.40;;;4.60;76.30;;;;;;4959250;28;20045;-75
2022/01/12 14:18:41;;;;;;;2.45;1.85;;;4.60;77.20;;;;;;4993535;28;20029;-75
2022/01/12 14:21:16;;;;;;;0.30;0.30;;;4.20;76.70;;;;;;4975194;28;20027;-76